Terminal Aerodrome Forecast
Issued by NWS

Home | Current Version | Previous Version | Text Only | Print | Product List | Glossary On
Versions: 1 2 3 4 5 6 7 8 9 10 11 12 13 14 15 16 17
000
FTUS44 KLZK 262300
TAFHRO
TAF
KHRO 262327Z 2700/2724 35009KT P6SM SKC
     FM270600 34005KT P6SM BKN060
     FM271100 34004KT P6SM SCT025 BKN050 PROB30 2711/2715 3SM -RASN
      BR BKN020
     FM271500 32008KT P6SM OVC020
     FM271900 32008KT P6SM SCT025 BKN040=

USA.gov is the U.S. government's official web portal to all federal, state and local government web resources and services.